Time;durP1;ratioP1;P1;durP2;ratioP2;P2;SDS_P1;SDS_P2;PMS_P1;PMS_P2;Temp;Humidity;BMP_temperature;BMP_pressure;BME280_temperature;BME280_humidity;BME280_pressure;Samples;Min_cycle;Max_cycle;Signal;HPM_P1;HPM_P2
2022/09/17 00:02:21;;;;;;;4.65;2.40;;;;;;;16.77;72.70;94002.19;5109657;28;20030;-73
2022/09/17 00:04:47;;;;;;;5.78;2.40;;;;;;;16.59;73.01;93992.88;5093567;28;20413;-73
2022/09/17 00:07:13;;;;;;;8.23;2.58;;;;;;;16.79;72.74;94003.63;5093494;28;20028;-73
2022/09/17 00:09:38;;;;;;;5.63;2.55;;;;;;;16.71;73.15;93994.00;5110318;28;20024;-73
2022/09/17 00:12:04;;;;;;;5.68;2.42;;;;;;;16.70;73.13;94013.38;5111902;28;20032;-73
2022/09/17 00:14:29;;;;;;;6.95;2.75;;;;;;;16.68;73.17;94004.06;5093126;28;20027;-73
2022/09/17 00:16:55;;;;;;;4.25;2.65;;;;;;;16.77;72.93;94010.88;5109951;28;20042;-73
2022/09/17 00:19:21;;;;;;;8.55;2.67;;;;;;;16.76;73.12;93980.34;5110143;28;20047;-73
2022/09/17 00:21:47;;;;;;;8.68;2.85;;;;;;;16.73;73.04;93976.28;5110254;28;20032;-73
2022/09/17 00:24:13;;;;;;;5.47;2.58;;;;;;;16.75;73.12;93981.38;5110084;28;20073;-73
2022/09/17 00:26:38;;;;;;;6.35;2.95;;;;;;;16.63;73.32;93956.59;5110163;28;20080;-73
2022/09/17 00:29:04;;;;;;;6.80;2.85;;;;;;;16.65;73.20;93965.09;5110043;28;20020;-73
2022/09/17 00:31:30;;;;;;;5.72;2.88;;;;;;;16.73;72.93;93972.88;5110068;28;20106;-73
2022/09/17 00:33:55;;;;;;;5.25;2.58;;;;;;;16.77;73.22;93968.91;5093104;28;20032;-73
2022/09/17 00:36:21;;;;;;;4.95;2.72;;;;;;;16.79;73.32;93971.34;5109996;28;20068;-73
2022/09/17 00:38:54;;;;;;;6.05;3.03;;;;;;;16.78;73.62;93975.78;5109980;28;20102;-73
2022/09/17 00:41:20;;;;;;;5.75;2.53;;;;;;;16.81;73.31;93978.03;5109926;28;20436;-73
2022/09/17 00:43:51;;;;;;;7.55;2.67;;;;;;;16.80;73.35;93973.78;5109845;28;20034;-73
2022/09/17 00:46:25;;;;;;;4.10;2.67;;;;;;;16.82;73.06;93969.16;5109978;28;20039;-73
2022/09/17 00:48:52;;;;;;;4.95;2.70;;;;;;;16.82;73.19;93968.34;5109722;28;20490;-73
2022/09/17 00:51:21;;;;;;;4.97;2.80;;;;;;;16.80;73.23;93980.81;5093078;28;20554;-73
2022/09/17 00:53:47;;;;;;;6.10;2.83;;;;;;;16.79;73.00;93987.88;5093185;28;20078;-73
2022/09/17 00:56:22;;;;;;;6.85;3.17;;;;;;;16.82;73.05;93982.25;5092714;28;20509;-73
2022/09/17 00:58:48;;;;;;;5.72;3.03;;;;;;;16.85;72.55;93983.72;5093864;28;20109;-73
2022/09/17 01:01:14;;;;;;;5.90;2.97;;;;;;;16.61;73.65;93997.94;5111167;28;20509;-73
2022/09/17 01:03:39;;;;;;;4.75;2.60;;;;;;;16.70;73.28;94000.25;5109895;28;20024;-73
2022/09/17 01:06:09;;;;;;;5.05;2.97;;;;;;;16.64;73.47;94000.19;5092864;28;20114;-73
2022/09/17 01:08:58;;;;;;;4.70;2.67;;;;;;;16.62;73.62;94004.81;5109838;28;20030;-73
2022/09/17 01:11:42;;;;;;;6.90;2.70;;;;;;;16.63;73.18;94012.50;5110679;28;20301;-73
2022/09/17 01:14:24;;;;;;;8.45;3.03;;;;;;;16.61;73.50;93990.09;5113003;28;20040;-73
2022/09/17 01:17:01;;;;;;;6.60;2.60;;;;;;;16.53;73.70;93985.75;5113461;28;20092;-73
2022/09/17 01:19:45;;;;;;;6.03;2.70;;;;;;;16.36;74.63;93979.91;5113662;27;20024;-73
2022/09/17 01:22:13;;;;;;;6.25;2.95;;;;;;;16.35;74.68;93987.94;5115075;28;20050;-73
2022/09/17 01:24:39;;;;;;;4.63;2.70;;;;;;;16.50;74.44;93989.53;5113336;28;20382;-73
2022/09/17 01:27:25;;;;;;;5.72;2.70;;;;;;;16.38;74.77;93998.03;5114366;28;20065;-73
2022/09/17 01:30:21;;;;;;;5.97;2.80;;;;;;;16.29;75.33;93989.47;5114445;28;20038;-73
2022/09/17 01:32:52;;;;;;;6.55;2.90;;;;;;;16.30;75.27;93991.91;5130272;27;20157;-73
2022/09/17 01:35:37;;;;;;;6.63;3.20;;;;;;;16.15;76.01;93982.44;5114382;28;20126;-73
2022/09/17 01:38:12;;;;;;;8.35;2.88;;;;;;;16.22;75.88;93972.88;5097235;28;20059;-73
2022/09/17 01:40:38;;;;;;;6.10;3.25;;;;;;;16.27;75.75;93976.56;5113207;28;20452;-73
2022/09/17 01:43:09;;;;;;;7.55;3.50;;;;;;;16.31;75.62;93983.06;5130071;27;20049;-73
2022/09/17 01:45:45;;;;;;;4.82;2.80;;;;;;;16.34;75.53;93984.50;5112979;28;20058;-73
2022/09/17 01:48:19;;;;;;;10.65;3.65;;;;;;;16.42;74.78;93994.88;5096974;28;20024;-73
2022/09/17 01:50:47;;;;;;;6.35;3.30;;;;;;;16.50;74.88;93991.34;5096808;28;20044;-73
2022/09/17 01:53:13;;;;;;;8.70;3.53;;;;;;;16.43;74.83;93965.03;5114204;27;20035;-73
2022/09/17 01:55:39;;;;;;;6.80;3.17;;;;;;;16.34;75.05;93947.81;5095837;28;20035;-73
2022/09/17 01:58:29;;;;;;;8.65;3.60;;;;;;;16.33;75.72;93917.38;5095789;28;20035;-73
2022/09/17 02:00:59;;;;;;;3.58;2.70;;;;;;;16.30;75.61;93892.34;5110848;28;20050;-73
2022/09/17 02:03:33;;;;;;;6.85;3.13;;;;;;;16.35;75.85;93891.75;5095760;28;20102;-73
2022/09/17 02:06:16;;;;;;;4.93;2.95;;;;;;;16.46;75.64;93883.41;5096448;28;20100;-73
2022/09/17 02:09:01;;;;;;;5.38;2.92;;;;;;;16.49;75.28;93890.94;5095683;27;20060;-73
2022/09/17 02:11:27;;;;;;;7.00;3.55;;;;;;;16.49;75.24;93897.97;5096828;28;20468;-73
2022/09/17 02:13:58;;;;;;;6.38;2.90;;;;;;;16.54;75.27;93922.63;5095450;28;20035;-73
2022/09/17 02:16:26;;;;;;;6.40;3.00;;;;;;;16.52;75.14;93956.09;5112349;28;20553;-73
2022/09/17 02:19:38;;;;;;;7.97;4.10;;;;;;;16.51;75.76;93914.34;5112133;28;20127;-73
2022/09/17 02:22:25;;;;;;;8.02;4.07;;;;;;;16.28;76.94;93922.34;5038617;28;20045;-73
2022/09/17 02:25:00;;;;;;;7.53;4.43;;;;;;;16.39;76.82;93903.53;5106260;28;20516;-73
2022/09/17 02:27:59;;;;;;;7.78;4.18;;;;;;;16.44;76.76;93872.34;5113304;28;20035;-73
2022/09/17 02:30:25;;;;;;;9.45;4.60;;;;;;;16.61;76.20;93856.38;5129404;27;20122;-73
2022/09/17 02:32:50;;;;;;;9.45;4.70;;;;;;;16.56;76.34;93848.25;5112057;28;20111;-73
2022/09/17 02:35:16;;;;;;;7.38;4.25;;;;;;;16.55;76.68;93829.09;5094839;28;20463;-73
2022/09/17 02:37:42;;;;;;;10.30;4.80;;;;;;;16.48;77.00;93818.53;5094949;28;20031;-73
2022/09/17 02:40:08;;;;;;;7.18;4.45;;;;;;;16.35;77.51;93800.03;5095040;28;20031;-73
2022/09/17 02:43:01;;;;;;;7.63;4.32;;;;;;;16.44;77.49;93809.44;5094847;28;20035;-73
2022/09/17 02:45:33;;;;;;;7.30;4.53;;;;;;;16.42;77.47;93808.78;5113532;28;20402;-73
2022/09/17 02:48:23;;;;;;;6.85;4.38;;;;;;;16.51;77.13;93818.16;5111753;28;20023;-73
2022/09/17 02:51:38;;;;;;;8.77;4.55;;;;;;;16.59;76.91;93842.63;5111954;28;20039;-73
2022/09/17 02:54:15;;;;;;;9.52;4.30;;;;;;;16.60;76.80;93860.78;5106818;28;20031;-73
2022/09/17 02:56:45;;;;;;;6.13;4.20;;;;;;;16.68;75.94;93868.53;5111635;28;20036;-73
2022/09/17 02:59:31;;;;;;;6.88;3.58;;;;;;;16.75;75.36;93868.59;5112713;28;20025;-73
2022/09/17 03:02:17;;;;;;;7.95;4.28;;;;;;;16.78;75.34;93870.88;5111690;28;20038;-73
2022/09/17 03:04:42;;;;;;;7.45;3.88;;;;;;;16.77;75.08;93869.28;5111734;28;20028;-73
2022/09/17 03:07:08;;;;;;;6.53;3.75;;;;;;;16.82;74.78;93860.81;5111507;28;20521;-73
2022/09/17 03:09:34;;;;;;;8.40;4.03;;;;;;;16.75;75.17;93848.44;5094306;28;20028;-73
2022/09/17 03:12:01;;;;;;;8.63;5.07;;;;;;;16.85;74.97;93865.69;5111467;28;20089;-73
2022/09/17 03:14:26;;;;;;;7.90;3.95;;;;;;;16.91;74.63;93844.78;5111252;28;20031;-73
2022/09/17 03:16:52;;;;;;;6.45;3.90;;;;;;;16.93;74.48;93827.00;5094093;28;20051;-73
2022/09/17 03:19:17;;;;;;;6.45;3.90;;;;;;;16.96;74.33;93799.59;5111097;28;20032;-73
2022/09/17 03:21:43;;;;;;;6.68;3.83;;;;;;;17.00;74.01;93766.75;5111237;28;20035;-73
2022/09/17 03:24:10;;;;;;;10.52;4.07;;;;;;;16.91;74.19;93747.72;5111125;28;20035;-73
2022/09/17 03:26:36;;;;;;;5.93;4.20;;;;;;;17.00;74.10;93761.50;5094208;28;20081;-73
2022/09/17 03:29:01;;;;;;;7.68;4.03;;;;;;;17.08;74.16;93805.97;5093944;28;20453;-73
2022/09/17 03:31:28;;;;;;;8.18;4.10;;;;;;;17.09;73.93;93812.81;5110969;28;20096;-73
2022/09/17 03:33:53;;;;;;;7.40;4.10;;;;;;;17.10;73.74;93835.41;5112144;28;20031;-73
2022/09/17 03:36:19;;;;;;;7.22;3.85;;;;;;;17.11;73.66;93831.00;5093515;28;20027;-73
2022/09/17 03:38:44;;;;;;;8.60;4.13;;;;;;;17.13;73.49;93829.81;5110443;28;20024;-73
2022/09/17 03:41:10;;;;;;;11.25;3.88;;;;;;;17.12;73.54;93814.25;5093807;28;20449;-73
2022/09/17 03:43:35;;;;;;;7.50;3.92;;;;;;;16.97;73.31;93783.69;5110661;28;20242;-73
2022/09/17 03:46:01;;;;;;;7.35;3.70;;;;;;;17.14;73.16;93793.88;5093793;28;20031;-73
2022/09/17 03:48:28;;;;;;;7.03;3.80;;;;;;;17.13;73.15;93781.75;5110602;28;20027;-73
2022/09/17 03:50:54;;;;;;;5.32;3.33;;;;;;;17.07;72.83;93756.28;5093926;28;20473;-73
2022/09/17 03:53:19;;;;;;;9.30;3.45;;;;;;;17.17;72.81;93762.81;5110590;28;20047;-73
2022/09/17 03:55:44;;;;;;;4.78;3.47;;;;;;;17.05;73.24;93766.16;5093530;28;20382;-73
2022/09/17 03:58:10;;;;;;;6.85;3.35;;;;;;;17.02;73.33;93775.25;5093427;28;20425;-73
2022/09/17 04:00:36;;;;;;;6.93;3.25;;;;;;;16.96;73.43;93779.41;5110459;28;20024;-73
2022/09/17 04:03:03;;;;;;;7.40;3.50;;;;;;;16.96;73.25;93799.59;5110319;28;20034;-73
2022/09/17 04:05:28;;;;;;;6.70;3.35;;;;;;;16.94;73.56;93799.00;5110337;28;20114;-73
2022/09/17 04:07:54;;;;;;;6.78;3.03;;;;;;;16.97;73.15;93775.81;5093383;28;20069;-73
2022/09/17 04:10:19;;;;;;;9.40;3.20;;;;;;;17.02;72.84;93805.91;5093342;28;20027;-73
2022/09/17 04:12:45;;;;;;;6.32;3.25;;;;;;;17.02;73.12;93819.00;5110426;28;20035;-73
2022/09/17 04:15:10;;;;;;;6.90;3.33;;;;;;;16.95;73.18;93822.41;5110108;28;20044;-73
2022/09/17 04:17:35;;;;;;;4.55;2.85;;;;;;;17.02;73.25;93826.88;5110028;28;20044;-73
2022/09/17 04:20:02;;;;;;;7.93;3.40;;;;;;;17.02;73.15;93826.88;5093149;28;20028;-73
2022/09/17 04:22:27;;;;;;;5.68;2.85;;;;;;;17.00;72.87;93813.16;5093192;28;20054;-73
2022/09/17 04:24:53;;;;;;;7.07;3.00;;;;;;;17.03;73.18;93831.94;5093093;28;20485;-73
2022/09/17 04:27:18;;;;;;;4.38;2.63;;;;;;;17.07;72.96;93861.22;5109925;28;20420;-73
2022/09/17 04:29:44;;;;;;;7.15;3.22;;;;;;;17.08;72.70;93881.25;5110375;28;20066;-73
2022/09/17 04:32:09;;;;;;;5.20;3.00;;;;;;;17.25;72.27;93908.81;5109814;28;20043;-73
2022/09/17 04:34:35;;;;;;;4.88;2.97;;;;;;;17.32;72.04;93920.19;5109938;28;20019;-73
2022/09/17 04:37:01;;;;;;;4.53;2.70;;;;;;;17.32;71.90;93932.50;5110022;28;20187;-73
2022/09/17 04:39:26;;;;;;;7.57;2.90;;;;;;;17.34;72.17;93944.44;5111161;28;20020;-73
2022/09/17 04:41:51;;;;;;;6.45;2.80;;;;;;;17.39;71.84;93934.19;5093139;28;20088;-73
2022/09/17 04:44:17;;;;;;;7.50;2.60;;;;;;;17.32;72.04;93938.53;5092998;28;20421;-73
2022/09/17 04:46:42;;;;;;;4.78;2.63;;;;;;;17.45;71.87;93950.19;5109780;28;20032;-73
2022/09/17 04:49:08;;;;;;;4.47;2.60;;;;;;;17.43;72.11;93958.22;5112196;28;20051;-73
2022/09/17 04:51:33;;;;;;;7.50;2.35;;;;;;;17.45;71.98;93977.22;5115503;28;20051;-73
2022/09/17 04:53:59;;;;;;;8.43;2.78;;;;;;;17.46;72.43;93980.66;5097153;28;20136;-73
2022/09/17 04:56:24;;;;;;;4.07;2.13;;;;;;;17.44;72.13;93996.63;5113893;28;20439;-73
2022/09/17 04:58:50;;;;;;;5.40;2.50;;;;;;;17.57;71.35;93985.41;5096951;28;20023;-73
2022/09/17 05:01:17;;;;;;;5.78;2.50;;;;;;;17.53;71.72;93994.66;5113726;28;20036;-73
2022/09/17 05:03:43;;;;;;;5.93;2.70;;;;;;;17.52;72.87;93990.41;5097047;28;20020;-73
2022/09/17 05:06:09;;;;;;;4.25;2.40;;;;;;;17.50;72.98;93993.25;5096867;28;20035;-73
2022/09/17 05:08:34;;;;;;;8.38;2.65;;;;;;;17.44;73.50;93988.75;5096678;28;20397;-73
2022/09/17 05:11:00;;;;;;;7.95;2.70;;;;;;;17.61;72.86;93989.28;5096779;28;20036;-73
2022/09/17 05:13:26;;;;;;;6.05;2.80;;;;;;;17.63;72.05;93982.00;5113823;28;20541;-73
2022/09/17 05:15:54;;;;;;;3.95;2.67;;;;;;;17.47;72.85;93962.13;5113543;28;20082;-73
2022/09/17 05:18:19;;;;;;;6.53;2.88;;;;;;;17.39;73.77;93949.94;5096409;28;20064;-73
2022/09/17 05:20:45;;;;;;;7.22;2.72;;;;;;;17.41;74.22;93962.84;5113587;28;20044;-73
2022/09/17 05:23:10;;;;;;;8.40;2.55;;;;;;;17.60;74.62;93971.88;5113321;28;20489;-73
2022/09/17 05:25:35;;;;;;;9.95;2.90;;;;;;;17.63;73.39;93958.38;5113448;28;20463;-73
2022/09/17 05:28:01;;;;;;;6.45;2.60;;;;;;;17.63;73.73;93946.09;5096204;28;20019;-73
2022/09/17 05:30:26;;;;;;;5.47;2.58;;;;;;;17.37;73.47;93923.03;5096310;28;20044;-73
2022/09/17 05:33:02;;;;;;;5.70;2.40;;;;;;;17.35;74.26;93951.28;5096121;28;20028;-73
2022/09/17 05:35:28;;;;;;;7.00;3.45;;;;;;;17.23;75.28;93937.06;5096057;28;20126;-73
2022/09/17 05:38:00;;;;;;;6.68;2.90;;;;;;;17.34;75.47;93941.00;5096096;28;20027;-73
2022/09/17 05:40:26;;;;;;;6.10;3.10;;;;;;;17.20;76.08;93961.88;5096089;28;20031;-73
2022/09/17 05:42:56;;;;;;;5.15;3.28;;;;;;;17.38;76.09;93979.81;5096341;28;20035;-73
2022/09/17 05:45:22;;;;;;;7.55;3.60;;;;;;;17.51;76.10;93965.16;5113543;27;20032;-73
2022/09/17 05:47:47;;;;;;;8.25;3.72;;;;;;;17.51;76.34;93936.28;5095942;28;20028;-73
2022/09/17 05:50:12;;;;;;;5.25;3.10;;;;;;;17.29;76.13;93912.69;5112951;28;20044;-73
2022/09/17 05:52:38;;;;;;;7.22;3.00;;;;;;;17.66;75.77;93939.59;5095838;28;20028;-73
2022/09/17 05:55:04;;;;;;;5.85;3.10;;;;;;;17.56;75.74;93928.66;5095755;28;20027;-73
2022/09/17 05:57:29;;;;;;;6.95;3.03;;;;;;;17.70;75.71;93955.81;5112616;28;20053;-73
2022/09/17 05:59:55;;;;;;;5.82;3.15;;;;;;;17.62;75.50;93948.88;5094589;28;20039;-73
2022/09/17 06:02:20;;;;;;;6.60;3.50;;;;;;;17.67;74.76;93945.69;5095830;28;20023;-73
2022/09/17 06:04:46;;;;;;;5.55;2.88;;;;;;;17.96;73.88;93956.00;5112691;28;20020;-73
2022/09/17 06:07:11;;;;;;;8.85;3.08;;;;;;;17.83;74.11;93955.94;5095651;28;20043;-73
2022/09/17 06:09:39;;;;;;;6.45;3.10;;;;;;;17.71;74.93;93970.56;5095557;28;20470;-73
2022/09/17 06:12:05;;;;;;;6.18;2.95;;;;;;;17.80;74.71;93961.56;5112640;28;20061;-73
2022/09/17 06:14:30;;;;;;;8.90;4.32;;;;;;;17.84;75.00;93968.06;5112436;28;20019;-73
2022/09/17 06:16:56;;;;;;;7.53;3.83;;;;;;;17.84;74.99;93971.50;5113638;28;20032;-73
2022/09/17 06:19:21;;;;;;;9.40;3.90;;;;;;;17.90;75.14;93982.25;5095686;28;20028;-73
2022/09/17 06:21:49;;;;;;;8.18;3.60;;;;;;;17.91;74.88;93995.19;5112371;28;20035;-73
2022/09/17 06:24:15;;;;;;;6.35;3.10;;;;;;;17.93;75.04;93981.88;5095538;28;20024;-73
2022/09/17 06:26:40;;;;;;;10.60;3.33;;;;;;;17.89;75.14;93985.88;5112306;28;20040;-73
2022/09/17 06:29:06;;;;;;;7.85;3.28;;;;;;;17.84;75.63;93989.88;5112074;28;20024;-73
2022/09/17 06:31:32;;;;;;;6.22;3.33;;;;;;;17.86;75.48;93982.63;5095221;28;20031;-73
2022/09/17 06:33:57;;;;;;;9.77;3.20;;;;;;;17.82;75.54;93981.38;5095422;28;20039;-73
2022/09/17 06:36:23;;;;;;;8.02;3.95;;;;;;;17.96;75.53;94015.63;5111913;28;20394;-73
2022/09/17 06:38:48;;;;;;;9.75;3.80;;;;;;;17.95;74.44;94021.91;5111954;27;20024;-73
2022/09/17 06:41:15;;;;;;;10.10;4.38;;;;;;;17.95;74.13;94029.78;5111980;28;20028;-73
2022/09/17 06:43:41;;;;;;;7.82;4.30;;;;;;;17.97;74.17;94049.59;5111930;28;20023;-73
2022/09/17 06:46:07;;;;;;;7.75;4.18;;;;;;;17.87;73.83;94041.22;5094986;28;20043;-73
2022/09/17 06:48:33;;;;;;;6.32;3.85;;;;;;;17.89;74.26;94075.22;5094870;28;20119;-73
2022/09/17 06:51:04;;;;;;;8.30;4.00;;;;;;;18.01;73.85;94057.91;5111878;28;20119;-73
2022/09/17 06:53:30;;;;;;;7.07;4.03;;;;;;;17.98;73.86;94042.53;5112780;28;20531;-73
2022/09/17 06:55:57;;;;;;;10.57;3.95;;;;;;;17.73;74.05;94027.16;5094753;28;20039;-73
2022/09/17 06:58:22;;;;;;;8.70;3.92;;;;;;;17.48;74.60;94008.34;5111740;27;20062;-73
2022/09/17 07:00:48;;;;;;;8.05;3.70;;;;;;;17.48;75.18;94015.44;5111470;28;20071;-73
2022/09/17 07:03:13;;;;;;;14.93;4.80;;;;;;;17.34;76.12;93988.25;5111417;28;20028;-73
2022/09/17 07:05:39;;;;;;;10.60;4.22;;;;;;;17.40;76.49;94006.66;5111551;28;20036;-73
2022/09/17 07:08:04;;;;;;;11.50;4.00;;;;;;;17.42;76.71;93985.50;5111320;28;20038;-74
2022/09/17 07:10:30;;;;;;;8.05;3.70;;;;;;;17.42;76.57;93949.53;5111376;28;20065;-73
2022/09/17 07:12:55;;;;;;;8.65;4.10;;;;;;;17.67;76.52;93964.88;5094447;28;20028;-73
2022/09/17 07:15:21;;;;;;;8.57;3.80;;;;;;;17.78;76.54;93956.50;5111279;28;20031;-73
2022/09/17 07:17:46;;;;;;;8.75;3.60;;;;;;;17.82;76.21;93946.44;5093976;28;20086;-73
2022/09/17 07:20:12;;;;;;;7.55;3.17;;;;;;;17.96;77.07;93929.72;5111211;28;20031;-73
2022/09/17 07:22:38;;;;;;;10.02;3.65;;;;;;;18.18;75.81;93927.84;5094175;28;20122;-73
2022/09/17 07:25:03;;;;;;;9.88;3.80;;;;;;;18.25;74.81;93923.44;5112295;28;20020;-73
2022/09/17 07:27:30;;;;;;;5.63;2.67;;;;;;;18.42;74.50;93928.34;5094180;28;20055;-73
2022/09/17 07:29:56;;;;;;;8.60;2.97;;;;;;;18.68;74.32;93927.63;5093972;28;20426;-73
2022/09/17 07:32:21;;;;;;;8.43;3.60;;;;;;;18.92;73.71;93918.41;5093919;28;20035;-73
2022/09/17 07:34:48;;;;;;;7.30;2.75;;;;;;;19.11;71.86;93922.91;5111146;28;20460;-74
2022/09/17 07:37:14;;;;;;;8.35;3.05;;;;;;;19.37;71.02;93929.19;5094035;28;20111;-74
2022/09/17 07:39:40;;;;;;;5.20;2.22;;;;;;;19.70;67.87;93920.50;5112072;28;20055;-74
2022/09/17 07:42:06;;;;;;;6.43;2.20;;;;;;;19.95;68.28;93929.38;5110907;28;20102;-74
2022/09/17 07:44:32;;;;;;;8.00;2.75;;;;;;;20.12;66.34;93928.94;5110707;28;20114;-73
2022/09/17 07:46:57;;;;;;;7.80;2.67;;;;;;;20.18;67.00;93909.66;5110737;27;20505;-74
2022/09/17 07:49:22;;;;;;;8.38;2.63;;;;;;;20.44;66.32;93903.47;5111839;28;20027;-73
2022/09/17 07:51:48;;;;;;;7.78;2.38;;;;;;;20.44;64.74;93896.34;5093670;28;20027;-74
2022/09/17 07:54:13;;;;;;;6.65;2.60;;;;;;;20.60;64.21;93905.66;5110512;28;20032;-74
2022/09/17 07:56:39;;;;;;;6.10;2.45;;;;;;;20.43;63.29;93873.63;5093653;28;20035;-73
2022/09/17 07:59:04;;;;;;;6.38;2.05;;;;;;;20.50;64.19;93881.50;5110513;28;20088;-73
2022/09/17 08:01:33;;;;;;;7.60;2.20;;;;;;;20.49;63.98;93877.25;5110552;28;20492;-74
2022/09/17 08:03:59;;;;;;;6.30;1.88;;;;;;;20.67;63.28;93890.59;5093484;28;20042;-73
2022/09/17 08:06:25;;;;;;;6.20;1.85;;;;;;;20.66;63.72;93898.72;5110290;28;20035;-74
2022/09/17 08:08:51;;;;;;;6.93;1.73;;;;;;;20.69;63.83;93904.38;5093572;28;20477;-74
2022/09/17 08:11:18;;;;;;;7.40;2.08;;;;;;;20.75;63.50;93893.00;5111752;28;20028;-74
2022/09/17 08:13:46;;;;;;;5.60;1.70;;;;;;;20.79;62.61;93877.53;5093445;28;20039;-74
2022/09/17 08:16:12;;;;;;;6.43;1.77;;;;;;;20.66;62.93;93878.41;5093235;28;20027;-74
2022/09/17 08:18:38;;;;;;;5.20;1.70;;;;;;;20.70;63.31;93886.75;5109954;28;20056;-74
2022/09/17 08:21:04;;;;;;;5.95;1.67;;;;;;;20.73;63.43;93878.41;5093089;28;20115;-74
2022/09/17 08:23:30;;;;;;;4.30;1.50;;;;;;;20.80;63.15;93865.97;5110718;28;20024;-74
2022/09/17 08:25:57;;;;;;;3.90;1.63;;;;;;;20.95;63.73;93868.31;5093194;28;20405;-74
2022/09/17 08:28:24;;;;;;;6.82;1.77;;;;;;;21.11;63.46;93869.59;5109992;28;20114;-74
2022/09/17 08:30:50;;;;;;;4.93;1.40;;;;;;;21.32;62.40;93876.38;5093342;28;20028;-74
2022/09/17 08:33:16;;;;;;;6.15;1.60;;;;;;;21.46;60.30;93863.88;5109968;28;20084;-74
2022/09/17 08:35:41;;;;;;;4.30;1.50;;;;;;;21.58;60.39;93872.72;5093016;28;20113;-74
2022/09/17 08:38:07;;;;;;;7.25;1.60;;;;;;;21.70;59.24;93863.03;5111125;28;20493;-74
2022/09/17 08:40:35;;;;;;;4.63;1.90;;;;;;;21.71;58.81;93854.09;5093148;28;20391;-74
2022/09/17 08:43:01;;;;;;;12.35;4.90;;;;;;;21.82;57.66;93866.59;5093583;28;20043;-74
2022/09/17 08:45:26;;;;;;;7.20;4.85;;;;;;;21.86;56.73;93866.94;5092857;28;20024;-74
2022/09/17 08:47:54;;;;;;;3.55;1.42;;;;;;;21.91;55.33;93861.00;5092950;28;20047;-74
2022/09/17 08:50:31;;;;;;;110.38;99.13;;;;;;;21.84;56.26;93863.72;5093118;28;20118;-74
2022/09/17 08:53:47;;;;;;;43.85;39.22;;;;;;;21.98;55.78;93869.66;5109844;28;20032;-74
2022/09/17 08:56:15;;;;;;;19.02;13.55;;;;;;;22.01;56.01;93859.47;5101246;28;20036;-74
2022/09/17 08:58:59;;;;;;;148.50;110.10;;;;;;;22.07;54.96;93853.31;5092790;28;20036;-74
2022/09/17 09:01:32;;;;;;;13.82;9.02;;;;;;;22.00;54.76;93851.75;5111198;28;20031;-74
2022/09/17 09:04:13;;;;;;;101.93;66.53;;;;;;;21.99;54.84;93856.22;5109943;28;20038;-74
2022/09/17 09:07:07;;;;;;;77.55;53.70;;;;;;;21.86;54.98;93857.19;5110227;28;20084;-74
2022/09/17 09:10:02;;;;;;;127.38;88.70;;;;;;;21.85;55.17;93876.72;5092800;28;20046;-74
2022/09/17 09:12:29;;;;;;;35.67;27.92;;;;;;;21.85;56.21;93882.00;5109803;28;20059;-74
2022/09/17 09:15:00;;;;;;;34.05;30.30;;;;;;;21.73;57.07;93886.41;5109693;28;20027;-74
2022/09/17 09:17:31;;;;;;;20.70;14.68;;;;;;;21.63;58.27;93872.88;5092434;28;20069;-74
2022/09/17 09:19:57;;;;;;;22.15;17.35;;;;;;;21.58;58.95;93873.50;5093062;28;20039;-74
2022/09/17 09:22:39;;;;;;;14.38;10.60;;;;;;;21.56;59.34;93904.66;5109505;28;20515;-74
2022/09/17 09:25:24;;;;;;;33.22;27.35;;;;;;;21.45;59.40;93904.53;5110826;28;20027;-74
2022/09/17 09:27:55;;;;;;;9.75;7.32;;;;;;;21.45;61.88;93920.38;5109581;28;20031;-74
2022/09/17 09:30:23;;;;;;;6.03;3.80;;;;;;;21.39;63.80;93922.03;5126575;27;20433;-74
2022/09/17 09:33:01;;;;;;;6.60;2.33;;;;;;;21.25;64.32;93918.66;5092646;28;20047;-74
2022/09/17 09:35:28;;;;;;;7.68;2.83;;;;;;;21.18;65.40;93939.03;5095132;28;20015;-74
2022/09/17 09:38:19;;;;;;;13.15;8.70;;;;;;;21.05;66.96;93960.22;5113092;28;20036;-74
2022/09/17 09:40:57;;;;;;;7.38;1.92;;;;;;;20.81;66.07;93944.13;5114598;28;20020;-73
2022/09/17 09:43:38;;;;;;;5.63;2.15;;;;;;;20.67;65.80;93942.53;5112895;28;20044;-73
2022/09/17 09:46:07;;;;;;;5.25;2.58;;;;;;;20.50;66.30;93950.09;5114455;28;20019;-73
2022/09/17 09:48:54;;;;;;;7.03;2.50;;;;;;;20.23;68.89;93958.09;5114060;28;20111;-73
2022/09/17 09:51:22;;;;;;;5.32;2.25;;;;;;;20.21;70.05;93959.31;5130041;27;20127;-74
2022/09/17 09:54:02;;;;;;;6.20;2.00;;;;;;;20.15;70.91;93949.63;5114037;28;20063;-73
2022/09/17 09:56:37;;;;;;;5.80;2.05;;;;;;;20.14;72.11;93974.34;5112856;28;20144;-73
2022/09/17 09:59:06;;;;;;;7.07;2.13;;;;;;;19.95;72.06;93966.28;5129798;27;20032;-73
2022/09/17 10:01:31;;;;;;;8.95;2.00;;;;;;;19.97;72.55;93971.31;5112879;28;20050;-73
2022/09/17 10:03:57;;;;;;;5.80;2.47;;;;;;;19.85;73.13;93965.88;5095763;28;20110;-73
2022/09/17 10:06:23;;;;;;;7.55;2.20;;;;;;;19.90;71.80;93968.72;5112653;28;20019;-73
2022/09/17 10:08:48;;;;;;;8.13;2.63;;;;;;;19.86;72.00;93959.56;5112564;28;20489;-73
2022/09/17 10:11:26;;;;;;;7.75;2.28;;;;;;;19.86;72.58;93936.69;5113986;27;20023;-73
2022/09/17 10:13:52;;;;;;;6.97;2.60;;;;;;;19.67;72.15;93919.09;5112736;28;20032;-73
2022/09/17 10:16:17;;;;;;;6.57;2.80;;;;;;;19.64;73.37;93893.13;5112433;28;20617;-73
2022/09/17 10:18:43;;;;;;;6.35;2.55;;;;;;;19.64;73.30;93882.59;5113256;27;20059;-73
2022/09/17 10:21:18;;;;;;;6.97;3.20;;;;;;;19.52;73.88;93894.75;5095436;28;20039;-73
2022/09/17 10:23:43;;;;;;;8.00;4.05;;;;;;;19.55;74.48;93887.22;5129245;27;20668;-73
2022/09/17 10:26:22;;;;;;;9.23;4.00;;;;;;;19.46;74.36;93871.84;5112252;28;20027;-73
2022/09/17 10:28:56;;;;;;;6.20;3.47;;;;;;;19.47;74.77;93870.84;5095683;28;20080;-74
2022/09/17 10:31:22;;;;;;;7.35;2.90;;;;;;;19.40;74.22;93847.97;5112277;28;20493;-73
2022/09/17 10:33:57;;;;;;;8.43;3.92;;;;;;;19.18;74.65;93851.81;5095027;28;20066;-73
2022/09/17 10:36:42;;;;;;;10.50;5.55;;;;;;;19.23;75.13;93870.44;5095049;28;20031;-73
2022/09/17 10:39:19;;;;;;;8.02;3.90;;;;;;;19.22;75.50;93853.03;5111882;28;20047;-73
2022/09/17 10:41:57;;;;;;;5.65;3.45;;;;;;;19.27;74.76;93842.69;5112049;28;20023;-74
2022/09/17 10:44:33;;;;;;;15.35;8.55;;;;;;;19.37;75.42;93823.88;5111833;28;20106;-73
2022/09/17 10:47:09;;;;;;;10.63;7.03;;;;;;;19.40;75.52;93818.19;5095856;28;20023;-73
2022/09/17 10:49:48;;;;;;;10.85;6.72;;;;;;;19.35;75.63;93791.66;5095857;28;20413;-74
2022/09/17 10:52:36;;;;;;;18.77;10.38;;;;;;;19.36;75.41;93757.22;5094953;28;20024;-74
2022/09/17 10:55:17;;;;;;;7.13;4.07;;;;;;;19.17;74.54;93732.56;5095663;28;20031;-74
2022/09/17 10:58:02;;;;;;;3.90;2.17;;;;;;;19.13;73.86;93726.06;5112871;28;20031;-74
2022/09/17 11:00:32;;;;;;;18.02;13.32;;;;;;;19.09;73.28;93724.09;5112852;28;20034;-74
2022/09/17 11:03:19;;;;;;;8.27;6.57;;;;;;;18.90;73.82;93733.63;5095017;28;20092;-74
2022/09/17 11:06:03;;;;;;;11.77;9.82;;;;;;;19.02;74.42;93745.13;5112669;28;20032;-74
2022/09/17 11:09:05;;;;;;;11.68;10.38;;;;;;;19.03;74.95;93751.19;5112544;28;20405;-74
2022/09/17 11:12:11;;;;;;;5.30;3.55;;;;;;;18.83;74.03;93754.66;5128526;27;20536;-74
2022/09/17 11:14:58;;;;;;;3.58;1.70;;;;;;;18.95;71.62;93775.91;5111768;28;20411;-74
2022/09/17 11:17:36;;;;;;;3.42;1.30;;;;;;;18.83;71.19;93777.53;5112144;28;20066;-74
2022/09/17 11:20:23;;;;;;;3.65;1.98;;;;;;;18.72;72.81;93771.84;5111216;28;20035;-74
2022/09/17 11:23:13;;;;;;;3.30;1.80;;;;;;;18.83;72.65;93788.03;5128201;27;20408;-74
2022/09/17 11:25:58;;;;;;;17.15;13.32;;;;;;;18.99;73.57;93795.53;5112477;28;20035;-74
2022/09/17 11:28:46;;;;;;;4.22;2.38;;;;;;;19.18;75.40;93780.75;5110964;28;20458;-74
2022/09/17 11:31:27;;;;;;;3.95;2.15;;;;;;;19.18;72.38;93794.72;5113486;27;20034;-74
2022/09/17 11:34:17;;;;;;;5.03;2.28;;;;;;;19.37;73.89;93819.41;5111299;28;20027;-74
2022/09/17 11:37:01;;;;;;;3.25;1.55;;;;;;;19.51;72.82;93822.81;5112368;28;20537;-74
2022/09/17 11:39:35;;;;;;;6.28;1.35;;;;;;;19.39;72.00;93813.94;5112289;27;20024;-73
2022/09/17 11:42:02;;;;;;;3.05;1.02;;;;;;;19.41;69.96;93823.22;5094563;28;20080;-74
2022/09/17 11:44:34;;;;;;;2.85;1.05;;;;;;;19.42;70.40;93824.06;5093817;28;20107;-74
2022/09/17 11:47:06;;;;;;;3.42;1.13;;;;;;;19.39;70.46;93820.00;5094264;28;20039;-74
2022/09/17 11:49:43;;;;;;;4.43;1.55;;;;;;;19.36;71.66;93830.13;5094283;28;20132;-74